sensor_id;sensor_type;location;lat;lon;timestamp;temperature;humidity
71128;SHT30;59249;59.736;30.568;2023-03-01T00:01:57;-2.38;63.19
71128;SHT30;59249;59.736;30.568;2023-03-01T00:04:26;-2.45;63.29
71128;SHT30;59249;59.736;30.568;2023-03-01T00:06:55;-2.24;63.24
71128;SHT30;59249;59.736;30.568;2023-03-01T00:09:23;-2.44;63.47
71128;SHT30;59249;59.736;30.568;2023-03-01T00:11:54;-2.27;63.47
71128;SHT30;59249;59.736;30.568;2023-03-01T00:14:23;-2.32;63.31
71128;SHT30;59249;59.736;30.568;2023-03-01T00:16:53;-2.31;63.17
71128;SHT30;59249;59.736;30.568;2023-03-01T00:19:21;-2.17;63.17
71128;SHT30;59249;59.736;30.568;2023-03-01T00:21:51;-2.18;63.04
71128;SHT30;59249;59.736;30.568;2023-03-01T00:24:19;-2.18;63.00
71128;SHT30;59249;59.736;30.568;2023-03-01T00:26:48;-2.10;63.07
71128;SHT30;59249;59.736;30.568;2023-03-01T00:29:18;-2.19;63.16
71128;SHT30;59249;59.736;30.568;2023-03-01T00:31:47;-2.12;63.30
71128;SHT30;59249;59.736;30.568;2023-03-01T00:34:16;-1.99;63.49
71128;SHT30;59249;59.736;30.568;2023-03-01T00:36:46;-2.07;63.53
71128;SHT30;59249;59.736;30.568;2023-03-01T00:39:16;-1.87;63.16
71128;SHT30;59249;59.736;30.568;2023-03-01T00:41:48;-1.88;63.07
71128;SHT30;59249;59.736;30.568;2023-03-01T00:44:19;-1.87;63.30
71128;SHT30;59249;59.736;30.568;2023-03-01T00:46:49;-1.82;63.47
71128;SHT30;59249;59.736;30.568;2023-03-01T00:49:17;-1.81;63.92
71128;SHT30;59249;59.736;30.568;2023-03-01T00:51:46;-1.79;64.30
71128;SHT30;59249;59.736;30.568;2023-03-01T00:54:15;-1.74;64.30
71128;SHT30;59249;59.736;30.568;2023-03-01T00:56:43;-1.78;64.35
71128;SHT30;59249;59.736;30.568;2023-03-01T00:59:12;-1.81;64.45
71128;SHT30;59249;59.736;30.568;2023-03-01T01:01:42;-1.72;64.40
71128;SHT30;59249;59.736;30.568;2023-03-01T01:04:13;-1.79;64.88
71128;SHT30;59249;59.736;30.568;2023-03-01T01:06:45;-1.80;64.66
71128;SHT30;59249;59.736;30.568;2023-03-01T01:09:17;-1.64;64.59
71128;SHT30;59249;59.736;30.568;2023-03-01T01:11:47;-1.56;64.86
71128;SHT30;59249;59.736;30.568;2023-03-01T01:14:18;-1.66;64.97
71128;SHT30;59249;59.736;30.568;2023-03-01T01:16:49;-1.75;65.10
71128;SHT30;59249;59.736;30.568;2023-03-01T01:19:18;-1.71;64.96
71128;SHT30;59249;59.736;30.568;2023-03-01T01:21:47;-1.71;64.81
71128;SHT30;59249;59.736;30.568;2023-03-01T01:24:17;-1.68;64.78
71128;SHT30;59249;59.736;30.568;2023-03-01T01:26:46;-1.82;64.80
71128;SHT30;59249;59.736;30.568;2023-03-01T01:29:15;-1.77;65.00
71128;SHT30;59249;59.736;30.568;2023-03-01T01:31:44;-1.94;65.35
71128;SHT30;59249;59.736;30.568;2023-03-01T01:34:16;-1.81;65.60
71128;SHT30;59249;59.736;30.568;2023-03-01T01:36:48;-1.91;65.74
71128;SHT30;59249;59.736;30.568;2023-03-01T01:39:17;-1.96;65.63
71128;SHT30;59249;59.736;30.568;2023-03-01T01:41:47;-2.06;66.02
71128;SHT30;59249;59.736;30.568;2023-03-01T01:44:19;-2.04;66.21
71128;SHT30;59249;59.736;30.568;2023-03-01T01:46:53;-2.19;66.39
71128;SHT30;59249;59.736;30.568;2023-03-01T01:49:30;-2.13;66.54
71128;SHT30;59249;59.736;30.568;2023-03-01T01:52:07;-2.25;66.91
71128;SHT30;59249;59.736;30.568;2023-03-01T01:54:44;-2.30;67.07
71128;SHT30;59249;59.736;30.568;2023-03-01T01:57:20;-2.34;67.45
71128;SHT30;59249;59.736;30.568;2023-03-01T01:59:53;-2.55;67.49
71128;SHT30;59249;59.736;30.568;2023-03-01T02:02:23;-2.52;67.77
71128;SHT30;59249;59.736;30.568;2023-03-01T02:05:05;-2.57;67.84
71128;SHT30;59249;59.736;30.568;2023-03-01T02:07:39;-2.62;68.02
71128;SHT30;59249;59.736;30.568;2023-03-01T02:10:09;-2.62;68.06
71128;SHT30;59249;59.736;30.568;2023-03-01T02:12:39;-2.64;68.14
71128;SHT30;59249;59.736;30.568;2023-03-01T02:15:33;-2.57;68.25
71128;SHT30;59249;59.736;30.568;2023-03-01T02:18:03;-2.70;68.68
71128;SHT30;59249;59.736;30.568;2023-03-01T02:20:43;-2.77;68.95
71128;SHT30;59249;59.736;30.568;2023-03-01T02:23:12;-2.92;69.19
71128;SHT30;59249;59.736;30.568;2023-03-01T02:25:50;-2.97;69.77
71128;SHT30;59249;59.736;30.568;2023-03-01T02:28:30;-2.86;69.67
71128;SHT30;59249;59.736;30.568;2023-03-01T02:30:59;-2.83;69.56
71128;SHT30;59249;59.736;30.568;2023-03-01T02:33:47;-2.84;69.41
71128;SHT30;59249;59.736;30.568;2023-03-01T02:36:21;-2.94;69.56
71128;SHT30;59249;59.736;30.568;2023-03-01T02:38:56;-2.92;69.72
71128;SHT30;59249;59.736;30.568;2023-03-01T02:41:28;-3.03;70.12
71128;SHT30;59249;59.736;30.568;2023-03-01T02:44:00;-3.08;70.38
71128;SHT30;59249;59.736;30.568;2023-03-01T02:46:29;-3.10;70.41
71128;SHT30;59249;59.736;30.568;2023-03-01T02:48:59;-3.06;70.28
71128;SHT30;59249;59.736;30.568;2023-03-01T02:51:47;-3.17;70.29
71128;SHT30;59249;59.736;30.568;2023-03-01T02:54:25;-3.17;70.41
71128;SHT30;59249;59.736;30.568;2023-03-01T02:56:57;-3.21;70.76
71128;SHT30;59249;59.736;30.568;2023-03-01T02:59:33;-3.22;71.02
71128;SHT30;59249;59.736;30.568;2023-03-01T03:02:07;-3.26;71.07
71128;SHT30;59249;59.736;30.568;2023-03-01T03:04:36;-3.28;71.06
71128;SHT30;59249;59.736;30.568;2023-03-01T03:07:05;-3.28;71.28
71128;SHT30;59249;59.736;30.568;2023-03-01T03:09:33;-3.25;71.05
71128;SHT30;59249;59.736;30.568;2023-03-01T03:12:02;-3.28;71.08
71128;SHT30;59249;59.736;30.568;2023-03-01T03:14:32;-3.41;71.40
71128;SHT30;59249;59.736;30.568;2023-03-01T03:17:02;-3.41;71.46
71128;SHT30;59249;59.736;30.568;2023-03-01T03:19:33;-3.32;71.20
71128;SHT30;59249;59.736;30.568;2023-03-01T03:22:02;-3.32;71.20
71128;SHT30;59249;59.736;30.568;2023-03-01T03:24:31;-3.46;71.45
71128;SHT30;59249;59.736;30.568;2023-03-01T03:27:05;-3.48;71.37
71128;SHT30;59249;59.736;30.568;2023-03-01T03:29:36;-3.47;71.59
71128;SHT30;59249;59.736;30.568;2023-03-01T03:32:05;-3.48;71.53
71128;SHT30;59249;59.736;30.568;2023-03-01T03:34:34;-3.56;71.61
71128;SHT30;59249;59.736;30.568;2023-03-01T03:37:03;-3.51;71.60
71128;SHT30;59249;59.736;30.568;2023-03-01T03:39:51;-3.46;71.56
71128;SHT30;59249;59.736;30.568;2023-03-01T03:42:22;-3.55;71.56
71128;SHT30;59249;59.736;30.568;2023-03-01T03:44:52;-3.55;71.76
71128;SHT30;59249;59.736;30.568;2023-03-01T03:47:20;-3.55;71.67
71128;SHT30;59249;59.736;30.568;2023-03-01T03:49:49;-3.58;71.91
71128;SHT30;59249;59.736;30.568;2023-03-01T03:52:18;-3.64;71.94
71128;SHT30;59249;59.736;30.568;2023-03-01T03:54:46;-3.65;72.22
71128;SHT30;59249;59.736;30.568;2023-03-01T03:57:15;-3.68;72.17
71128;SHT30;59249;59.736;30.568;2023-03-01T03:59:44;-3.67;72.18
71128;SHT30;59249;59.736;30.568;2023-03-01T04:02:14;-3.64;71.97
71128;SHT30;59249;59.736;30.568;2023-03-01T04:04:49;-3.71;72.18
71128;SHT30;59249;59.736;30.568;2023-03-01T04:07:18;-3.72;72.22
71128;SHT30;59249;59.736;30.568;2023-03-01T04:09:46;-3.69;72.21
71128;SHT30;59249;59.736;30.568;2023-03-01T04:12:15;-3.72;72.16
71128;SHT30;59249;59.736;30.568;2023-03-01T04:14:50;-3.69;72.20
71128;SHT30;59249;59.736;30.568;2023-03-01T04:17:20;-3.74;72.21
71128;SHT30;59249;59.736;30.568;2023-03-01T04:19:48;-3.76;72.31
71128;SHT30;59249;59.736;30.568;2023-03-01T04:22:17;-3.78;72.38
71128;SHT30;59249;59.736;30.568;2023-03-01T04:24:46;-3.81;72.52
71128;SHT30;59249;59.736;30.568;2023-03-01T04:27:16;-3.79;72.44
71128;SHT30;59249;59.736;30.568;2023-03-01T04:29:44;-3.84;72.55
71128;SHT30;59249;59.736;30.568;2023-03-01T04:32:13;-3.79;72.45
71128;SHT30;59249;59.736;30.568;2023-03-01T04:34:45;-3.76;72.24
71128;SHT30;59249;59.736;30.568;2023-03-01T04:37:13;-3.81;72.18
71128;SHT30;59249;59.736;30.568;2023-03-01T04:39:45;-3.73;72.06
71128;SHT30;59249;59.736;30.568;2023-03-01T04:42:15;-3.73;72.16
71128;SHT30;59249;59.736;30.568;2023-03-01T04:44:44;-3.79;72.23
71128;SHT30;59249;59.736;30.568;2023-03-01T04:47:12;-3.75;72.22
71128;SHT30;59249;59.736;30.568;2023-03-01T04:49:41;-3.78;72.22
71128;SHT30;59249;59.736;30.568;2023-03-01T04:52:11;-3.71;72.09
71128;SHT30;59249;59.736;30.568;2023-03-01T04:54:40;-3.78;72.13
71128;SHT30;59249;59.736;30.568;2023-03-01T04:57:08;-3.71;72.07
71128;SHT30;59249;59.736;30.568;2023-03-01T04:59:37;-3.73;72.10
71128;SHT30;59249;59.736;30.568;2023-03-01T05:02:06;-3.71;72.09
71128;SHT30;59249;59.736;30.568;2023-03-01T05:04:37;-3.66;72.02
71128;SHT30;59249;59.736;30.568;2023-03-01T05:07:06;-3.74;72.27
71128;SHT30;59249;59.736;30.568;2023-03-01T05:09:37;-3.71;72.17
71128;SHT30;59249;59.736;30.568;2023-03-01T05:12:06;-3.68;71.87
71128;SHT30;59249;59.736;30.568;2023-03-01T05:14:34;-3.72;72.12
71128;SHT30;59249;59.736;30.568;2023-03-01T05:17:03;-3.70;71.87
71128;SHT30;59249;59.736;30.568;2023-03-01T05:19:32;-3.68;71.82
71128;SHT30;59249;59.736;30.568;2023-03-01T05:22:01;-3.69;71.73
71128;SHT30;59249;59.736;30.568;2023-03-01T05:24:33;-3.73;71.69
71128;SHT30;59249;59.736;30.568;2023-03-01T05:27:06;-3.76;71.98
71128;SHT30;59249;59.736;30.568;2023-03-01T05:29:38;-3.74;72.03
71128;SHT30;59249;59.736;30.568;2023-03-01T05:32:10;-3.67;72.06
71128;SHT30;59249;59.736;30.568;2023-03-01T05:34:43;-3.54;71.63
71128;SHT30;59249;59.736;30.568;2023-03-01T05:37:14;-3.52;71.67
71128;SHT30;59249;59.736;30.568;2023-03-01T05:39:43;-3.45;71.56
71128;SHT30;59249;59.736;30.568;2023-03-01T05:42:13;-3.37;71.58
71128;SHT30;59249;59.736;30.568;2023-03-01T05:44:42;-3.38;71.62
71128;SHT30;59249;59.736;30.568;2023-03-01T05:47:11;-3.33;71.52
71128;SHT30;59249;59.736;30.568;2023-03-01T05:49:40;-3.34;71.56
71128;SHT30;59249;59.736;30.568;2023-03-01T05:52:11;-3.23;71.42
71128;SHT30;59249;59.736;30.568;2023-03-01T05:54:41;-3.16;71.28
71128;SHT30;59249;59.736;30.568;2023-03-01T05:57:10;-3.13;71.16
71128;SHT30;59249;59.736;30.568;2023-03-01T05:59:40;-3.11;70.90
71128;SHT30;59249;59.736;30.568;2023-03-01T06:02:09;-3.06;70.86
71128;SHT30;59249;59.736;30.568;2023-03-01T06:04:39;-3.02;71.04
71128;SHT30;59249;59.736;30.568;2023-03-01T06:07:10;-3.06;70.91
71128;SHT30;59249;59.736;30.568;2023-03-01T06:09:41;-2.89;70.88
71128;SHT30;59249;59.736;30.568;2023-03-01T06:12:12;-2.95;70.98
71128;SHT30;59249;59.736;30.568;2023-03-01T06:14:45;-2.97;70.99
71128;SHT30;59249;59.736;30.568;2023-03-01T06:17:16;-2.90;70.93
71128;SHT30;59249;59.736;30.568;2023-03-01T06:19:46;-2.81;70.74
71128;SHT30;59249;59.736;30.568;2023-03-01T06:22:15;-2.75;70.74
71128;SHT30;59249;59.736;30.568;2023-03-01T06:24:43;-2.58;70.50
71128;SHT30;59249;59.736;30.568;2023-03-01T06:27:12;-2.67;70.53
71128;SHT30;59249;59.736;30.568;2023-03-01T06:29:43;-2.59;70.41
71128;SHT30;59249;59.736;30.568;2023-03-01T06:32:17;-2.44;70.47
71128;SHT30;59249;59.736;30.568;2023-03-01T06:34:46;-2.53;70.32
71128;SHT30;59249;59.736;30.568;2023-03-01T06:37:18;-2.55;70.47
71128;SHT30;59249;59.736;30.568;2023-03-01T06:39:47;-2.48;70.51
71128;SHT30;59249;59.736;30.568;2023-03-01T06:42:17;-2.32;70.43
71128;SHT30;59249;59.736;30.568;2023-03-01T06:44:47;-2.38;70.35
71128;SHT30;59249;59.736;30.568;2023-03-01T06:47:17;-2.44;70.21
71128;SHT30;59249;59.736;30.568;2023-03-01T06:49:46;-2.34;70.15
71128;SHT30;59249;59.736;30.568;2023-03-01T06:52:15;-2.25;70.19
71128;SHT30;59249;59.736;30.568;2023-03-01T06:54:43;-2.33;70.04
71128;SHT30;59249;59.736;30.568;2023-03-01T06:57:12;-2.22;70.13
71128;SHT30;59249;59.736;30.568;2023-03-01T06:59:41;-2.13;69.90
71128;SHT30;59249;59.736;30.568;2023-03-01T07:02:11;-2.17;69.84
71128;SHT30;59249;59.736;30.568;2023-03-01T07:04:41;-2.09;69.59
71128;SHT30;59249;59.736;30.568;2023-03-01T07:07:11;-1.99;69.66
71128;SHT30;59249;59.736;30.568;2023-03-01T07:09:39;-2.10;69.65
71128;SHT30;59249;59.736;30.568;2023-03-01T07:12:08;-2.03;69.56
71128;SHT30;59249;59.736;30.568;2023-03-01T07:14:37;-2.01;69.68
71128;SHT30;59249;59.736;30.568;2023-03-01T07:17:06;-1.84;69.45
71128;SHT30;59249;59.736;30.568;2023-03-01T07:19:36;-1.97;69.43
71128;SHT30;59249;59.736;30.568;2023-03-01T07:22:05;-1.87;69.53
71128;SHT30;59249;59.736;30.568;2023-03-01T07:24:39;-1.93;69.54
71128;SHT30;59249;59.736;30.568;2023-03-01T07:27:08;-1.81;69.44
71128;SHT30;59249;59.736;30.568;2023-03-01T07:29:36;-1.71;69.47
71128;SHT30;59249;59.736;30.568;2023-03-01T07:32:06;-1.60;69.46
71128;SHT30;59249;59.736;30.568;2023-03-01T07:34:36;-1.70;69.46
71128;SHT30;59249;59.736;30.568;2023-03-01T07:37:05;-1.64;69.46
71128;SHT30;59249;59.736;30.568;2023-03-01T07:39:34;-1.65;69.64
71128;SHT30;59249;59.736;30.568;2023-03-01T07:42:03;-1.51;69.61
71128;SHT30;59249;59.736;30.568;2023-03-01T07:44:32;-1.53;69.82
71128;SHT30;59249;59.736;30.568;2023-03-01T07:47:03;-1.46;69.90
71128;SHT30;59249;59.736;30.568;2023-03-01T07:49:31;-1.58;69.84
71128;SHT30;59249;59.736;30.568;2023-03-01T07:52:01;-1.43;70.04
71128;SHT30;59249;59.736;30.568;2023-03-01T07:54:30;-1.36;69.88
71128;SHT30;59249;59.736;30.568;2023-03-01T07:56:59;-1.43;70.27
71128;SHT30;59249;59.736;30.568;2023-03-01T07:59:28;-1.41;70.01
71128;SHT30;59249;59.736;30.568;2023-03-01T08:01:57;-1.39;69.97
71128;SHT30;59249;59.736;30.568;2023-03-01T08:04:26;-1.49;70.03
71128;SHT30;59249;59.736;30.568;2023-03-01T08:07:19;-1.33;70.20
71128;SHT30;59249;59.736;30.568;2023-03-01T08:09:55;-1.30;69.84
71128;SHT30;59249;59.736;30.568;2023-03-01T08:12:27;-1.27;69.75
71128;SHT30;59249;59.736;30.568;2023-03-01T08:14:58;-1.17;69.46
71128;SHT30;59249;59.736;30.568;2023-03-01T08:17:27;-1.15;69.45
71128;SHT30;59249;59.736;30.568;2023-03-01T08:19:57;-1.27;69.47
71128;SHT30;59249;59.736;30.568;2023-03-01T08:22:27;-1.13;69.36
71128;SHT30;59249;59.736;30.568;2023-03-01T08:24:56;-1.04;69.69
71128;SHT30;59249;59.736;30.568;2023-03-01T08:27:25;-1.17;69.59
71128;SHT30;59249;59.736;30.568;2023-03-01T08:29:56;-0.95;69.22
71128;SHT30;59249;59.736;30.568;2023-03-01T08:32:25;-0.95;68.90
71128;SHT30;59249;59.736;30.568;2023-03-01T08:34:54;-0.99;68.91
71128;SHT30;59249;59.736;30.568;2023-03-01T08:37:26;-0.90;68.60
71128;SHT30;59249;59.736;30.568;2023-03-01T08:39:58;-0.84;68.25
71128;SHT30;59249;59.736;30.568;2023-03-01T08:42:27;-0.65;68.29
71128;SHT30;59249;59.736;30.568;2023-03-01T08:44:56;-0.55;67.94
71128;SHT30;59249;59.736;30.568;2023-03-01T08:47:31;-0.55;67.98
71128;SHT30;59249;59.736;30.568;2023-03-01T08:50:03;-0.45;67.89
71128;SHT30;59249;59.736;30.568;2023-03-01T08:52:37;-0.43;68.11
71128;SHT30;59249;59.736;30.568;2023-03-01T08:55:08;-0.43;67.76
71128;SHT30;59249;59.736;30.568;2023-03-01T08:57:38;-0.50;68.02
71128;SHT30;59249;59.736;30.568;2023-03-01T09:00:09;-0.52;68.34
71128;SHT30;59249;59.736;30.568;2023-03-01T09:02:38;-0.45;68.81
71128;SHT30;59249;59.736;30.568;2023-03-01T09:05:08;-0.56;69.32
71128;SHT30;59249;59.736;30.568;2023-03-01T09:07:39;-0.56;69.49
71128;SHT30;59249;59.736;30.568;2023-03-01T09:10:09;-0.49;69.61
71128;SHT30;59249;59.736;30.568;2023-03-01T09:12:39;-0.47;69.78
71128;SHT30;59249;59.736;30.568;2023-03-01T09:15:10;-0.61;69.42
71128;SHT30;59249;59.736;30.568;2023-03-01T09:17:39;-0.47;68.93
71128;SHT30;59249;59.736;30.568;2023-03-01T09:20:15;-0.28;69.13
71128;SHT30;59249;59.736;30.568;2023-03-01T09:22:45;-0.22;68.95
71128;SHT30;59249;59.736;30.568;2023-03-01T09:25:14;-0.08;68.77
71128;SHT30;59249;59.736;30.568;2023-03-01T09:27:43;0.02;68.22
71128;SHT30;59249;59.736;30.568;2023-03-01T09:30:14;0.08;68.11
71128;SHT30;59249;59.736;30.568;2023-03-01T09:32:43;0.02;67.84
71128;SHT30;59249;59.736;30.568;2023-03-01T09:35:14;0.21;67.65
71128;SHT30;59249;59.736;30.568;2023-03-01T09:37:44;0.19;68.03
71128;SHT30;59249;59.736;30.568;2023-03-01T09:40:17;0.26;67.95
71128;SHT30;59249;59.736;30.568;2023-03-01T09:42:54;0.29;68.11
71128;SHT30;59249;59.736;30.568;2023-03-01T09:45:30;0.50;68.12
71128;SHT30;59249;59.736;30.568;2023-03-01T09:48:03;0.41;68.20
71128;SHT30;59249;59.736;30.568;2023-03-01T09:50:39;0.43;68.37
71128;SHT30;59249;59.736;30.568;2023-03-01T09:53:16;0.48;68.42
71128;SHT30;59249;59.736;30.568;2023-03-01T09:55:54;0.65;68.50
71128;SHT30;59249;59.736;30.568;2023-03-01T09:58:49;0.46;68.46
71128;SHT30;59249;59.736;30.568;2023-03-01T10:01:33;0.60;68.91
71128;SHT30;59249;59.736;30.568;2023-03-01T10:04:26;0.56;69.15
71128;SHT30;59249;59.736;30.568;2023-03-01T10:07:17;0.59;69.53
71128;SHT30;59249;59.736;30.568;2023-03-01T10:09:58;0.81;70.12
71128;SHT30;59249;59.736;30.568;2023-03-01T10:12:39;0.52;69.89
71128;SHT30;59249;59.736;30.568;2023-03-01T10:15:15;0.63;70.27
71128;SHT30;59249;59.736;30.568;2023-03-01T10:17:54;0.66;70.23
71128;SHT30;59249;59.736;30.568;2023-03-01T10:20:30;0.71;70.37
71128;SHT30;59249;59.736;30.568;2023-03-01T10:23:02;0.77;70.58
71128;SHT30;59249;59.736;30.568;2023-03-01T10:25:49;0.82;71.02
71128;SHT30;59249;59.736;30.568;2023-03-01T10:28:29;0.97;70.67
71128;SHT30;59249;59.736;30.568;2023-03-01T10:31:00;0.97;70.46
71128;SHT30;59249;59.736;30.568;2023-03-01T10:33:32;1.01;70.69
71128;SHT30;59249;59.736;30.568;2023-03-01T10:36:04;0.99;70.68
71128;SHT30;59249;59.736;30.568;2023-03-01T10:38:52;1.07;70.30
71128;SHT30;59249;59.736;30.568;2023-03-01T10:41:26;1.17;70.03
71128;SHT30;59249;59.736;30.568;2023-03-01T10:43:59;1.22;69.76
71128;SHT30;59249;59.736;30.568;2023-03-01T10:46:33;1.28;69.49
71128;SHT30;59249;59.736;30.568;2023-03-01T10:49:16;1.34;68.59
71128;SHT30;59249;59.736;30.568;2023-03-01T10:51:47;1.40;68.66
71128;SHT30;59249;59.736;30.568;2023-03-01T10:54:20;1.40;69.06
71128;SHT30;59249;59.736;30.568;2023-03-01T10:56:54;1.23;69.59
71128;SHT30;59249;59.736;30.568;2023-03-01T10:59:29;1.32;69.24
71128;SHT30;59249;59.736;30.568;2023-03-01T11:02:15;1.32;69.15
71128;SHT30;59249;59.736;30.568;2023-03-01T11:04:59;1.46;69.03
71128;SHT30;59249;59.736;30.568;2023-03-01T11:07:31;1.55;68.84
71128;SHT30;59249;59.736;30.568;2023-03-01T11:10:18;1.60;68.74
71128;SHT30;59249;59.736;30.568;2023-03-01T11:12:51;1.67;68.91
71128;SHT30;59249;59.736;30.568;2023-03-01T11:15:28;1.54;68.97
71128;SHT30;59249;59.736;30.568;2023-03-01T11:17:57;1.62;69.00
71128;SHT30;59249;59.736;30.568;2023-03-01T11:20:40;1.76;69.59
71128;SHT30;59249;59.736;30.568;2023-03-01T11:23:13;1.69;69.84
71128;SHT30;59249;59.736;30.568;2023-03-01T11:25:45;1.58;70.17
71128;SHT30;59249;59.736;30.568;2023-03-01T11:28:19;1.55;70.28
71128;SHT30;59249;59.736;30.568;2023-03-01T11:30:55;1.64;70.42
71128;SHT30;59249;59.736;30.568;2023-03-01T11:33:42;1.58;70.69
71128;SHT30;59249;59.736;30.568;2023-03-01T11:36:22;1.59;70.86
71128;SHT30;59249;59.736;30.568;2023-03-01T11:38:54;1.67;70.73
71128;SHT30;59249;59.736;30.568;2023-03-01T11:41:27;1.68;70.85
71128;SHT30;59249;59.736;30.568;2023-03-01T11:44:04;1.73;70.66
71128;SHT30;59249;59.736;30.568;2023-03-01T11:47:06;1.78;70.51
71128;SHT30;59249;59.736;30.568;2023-03-01T11:50:04;1.76;70.30
71128;SHT30;59249;59.736;30.568;2023-03-01T11:52:48;1.73;70.23
71128;SHT30;59249;59.736;30.568;2023-03-01T11:55:48;1.81;69.70
71128;SHT30;59249;59.736;30.568;2023-03-01T11:58:38;1.75;70.21
71128;SHT30;59249;59.736;30.568;2023-03-01T12:01:26;1.71;70.28
71128;SHT30;59249;59.736;30.568;2023-03-01T12:04:38;1.74;70.27
71128;SHT30;59249;59.736;30.568;2023-03-01T12:07:20;1.86;70.31
71128;SHT30;59249;59.736;30.568;2023-03-01T12:10:15;1.60;70.16
71128;SHT30;59249;59.736;30.568;2023-03-01T12:13:13;1.69;70.53
71128;SHT30;59249;59.736;30.568;2023-03-01T12:16:10;1.57;70.97
71128;SHT30;59249;59.736;30.568;2023-03-01T12:19:11;1.52;72.11
71128;SHT30;59249;59.736;30.568;2023-03-01T12:21:58;1.65;72.32
71128;SHT30;59249;59.736;30.568;2023-03-01T12:28:30;1.40;74.64
71128;SHT30;59249;59.736;30.568;2023-03-01T12:35:19;1.25;75.66
71128;SHT30;59249;59.736;30.568;2023-03-01T12:38:13;1.27;75.77
71128;SHT30;59249;59.736;30.568;2023-03-01T12:44:11;1.26;76.62
71128;SHT30;59249;59.736;30.568;2023-03-01T12:46:55;1.09;77.32
71128;SHT30;59249;59.736;30.568;2023-03-01T12:49:35;1.11;77.69
71128;SHT30;59249;59.736;30.568;2023-03-01T12:52:14;1.13;78.85
71128;SHT30;59249;59.736;30.568;2023-03-01T12:54:46;0.97;80.13
71128;SHT30;59249;59.736;30.568;2023-03-01T12:57:24;0.88;80.91
71128;SHT30;59249;59.736;30.568;2023-03-01T13:00:17;0.88;81.82
71128;SHT30;59249;59.736;30.568;2023-03-01T13:02:56;0.79;82.33
71128;SHT30;59249;59.736;30.568;2023-03-01T13:05:40;0.88;82.26
71128;SHT30;59249;59.736;30.568;2023-03-01T13:08:20;0.97;82.53
71128;SHT30;59249;59.736;30.568;2023-03-01T13:10:56;0.99;82.41
71128;SHT30;59249;59.736;30.568;2023-03-01T13:13:28;0.94;82.55
71128;SHT30;59249;59.736;30.568;2023-03-01T13:16:22;0.79;83.42
71128;SHT30;59249;59.736;30.568;2023-03-01T13:19:13;0.75;84.21
71128;SHT30;59249;59.736;30.568;2023-03-01T13:21:47;0.70;84.21
71128;SHT30;59249;59.736;30.568;2023-03-01T13:24:28;0.83;84.18
71128;SHT30;59249;59.736;30.568;2023-03-01T13:27:23;0.73;84.00
71128;SHT30;59249;59.736;30.568;2023-03-01T13:29:58;0.69;84.05
71128;SHT30;59249;59.736;30.568;2023-03-01T13:32:33;0.60;83.74
71128;SHT30;59249;59.736;30.568;2023-03-01T13:35:41;0.64;83.70
71128;SHT30;59249;59.736;30.568;2023-03-01T13:38:46;0.68;83.49
71128;SHT30;59249;59.736;30.568;2023-03-01T13:41:17;0.78;83.28
71128;SHT30;59249;59.736;30.568;2023-03-01T13:43:47;0.79;83.14
71128;SHT30;59249;59.736;30.568;2023-03-01T13:46:20;0.68;83.05
71128;SHT30;59249;59.736;30.568;2023-03-01T13:48:53;0.64;82.99
71128;SHT30;59249;59.736;30.568;2023-03-01T13:51:26;0.54;83.00
71128;SHT30;59249;59.736;30.568;2023-03-01T13:54:00;0.64;83.00
71128;SHT30;59249;59.736;30.568;2023-03-01T13:56:36;0.45;83.21
71128;SHT30;59249;59.736;30.568;2023-03-01T13:59:13;0.57;83.14
71128;SHT30;59249;59.736;30.568;2023-03-01T14:01:42;0.46;83.55
71128;SHT30;59249;59.736;30.568;2023-03-01T14:04:22;0.53;83.34
71128;SHT30;59249;59.736;30.568;2023-03-01T14:06:52;0.48;83.72
71128;SHT30;59249;59.736;30.568;2023-03-01T14:09:43;0.44;83.83
71128;SHT30;59249;59.736;30.568;2023-03-01T14:12:29;0.58;84.50
71128;SHT30;59249;59.736;30.568;2023-03-01T14:15:06;0.41;84.81
71128;SHT30;59249;59.736;30.568;2023-03-01T14:17:53;0.34;85.19
71128;SHT30;59249;59.736;30.568;2023-03-01T14:20:26;0.34;85.28
71128;SHT30;59249;59.736;30.568;2023-03-01T14:22:59;0.36;85.67
71128;SHT30;59249;59.736;30.568;2023-03-01T14:25:33;0.37;85.74
71128;SHT30;59249;59.736;30.568;2023-03-01T14:28:14;0.36;85.37
71128;SHT30;59249;59.736;30.568;2023-03-01T14:30:46;0.44;85.33
71128;SHT30;59249;59.736;30.568;2023-03-01T14:33:24;0.55;85.11
71128;SHT30;59249;59.736;30.568;2023-03-01T14:35:57;0.43;84.98
71128;SHT30;59249;59.736;30.568;2023-03-01T14:38:33;0.39;84.87
71128;SHT30;59249;59.736;30.568;2023-03-01T14:41:08;0.32;84.68
71128;SHT30;59249;59.736;30.568;2023-03-01T14:43:40;0.34;84.61
71128;SHT30;59249;59.736;30.568;2023-03-01T14:46:19;0.40;84.70
71128;SHT30;59249;59.736;30.568;2023-03-01T14:48:51;0.40;84.11
71128;SHT30;59249;59.736;30.568;2023-03-01T14:51:20;0.33;83.97
71128;SHT30;59249;59.736;30.568;2023-03-01T14:53:50;0.27;83.87
71128;SHT30;59249;59.736;30.568;2023-03-01T14:56:20;0.23;84.39
71128;SHT30;59249;59.736;30.568;2023-03-01T14:58:52;0.24;85.09
71128;SHT30;59249;59.736;30.568;2023-03-01T15:01:21;0.01;84.48
71128;SHT30;59249;59.736;30.568;2023-03-01T15:03:51;0.11;83.16
71128;SHT30;59249;59.736;30.568;2023-03-01T15:06:22;-0.26;82.24
71128;SHT30;59249;59.736;30.568;2023-03-01T15:08:53;-0.27;82.08
71128;SHT30;59249;59.736;30.568;2023-03-01T15:11:30;-0.38;82.49
71128;SHT30;59249;59.736;30.568;2023-03-01T15:14:00;-0.35;81.99
71128;SHT30;59249;59.736;30.568;2023-03-01T15:16:31;-0.29;80.81
71128;SHT30;59249;59.736;30.568;2023-03-01T15:19:03;-0.38;80.34
71128;SHT30;59249;59.736;30.568;2023-03-01T15:21:34;-0.26;78.70
71128;SHT30;59249;59.736;30.568;2023-03-01T15:24:07;-0.16;77.19
71128;SHT30;59249;59.736;30.568;2023-03-01T15:26:43;-0.19;76.20
71128;SHT30;59249;59.736;30.568;2023-03-01T15:29:19;-0.11;75.73
71128;SHT30;59249;59.736;30.568;2023-03-01T15:31:57;-0.17;74.65
71128;SHT30;59249;59.736;30.568;2023-03-01T15:34:29;-0.16;74.21
71128;SHT30;59249;59.736;30.568;2023-03-01T15:37:04;-0.08;73.78
71128;SHT30;59249;59.736;30.568;2023-03-01T15:39:39;-0.07;73.25
71128;SHT30;59249;59.736;30.568;2023-03-01T15:42:36;0.00;72.97
71128;SHT30;59249;59.736;30.568;2023-03-01T15:45:09;-0.03;72.64
71128;SHT30;59249;59.736;30.568;2023-03-01T15:47:46;0.08;72.70
71128;SHT30;59249;59.736;30.568;2023-03-01T15:50:22;-0.10;72.45
71128;SHT30;59249;59.736;30.568;2023-03-01T15:52:54;0.09;71.99
71128;SHT30;59249;59.736;30.568;2023-03-01T15:55:26;-0.06;71.87
71128;SHT30;59249;59.736;30.568;2023-03-01T15:58:04;0.00;71.66
71128;SHT30;59249;59.736;30.568;2023-03-01T16:00:34;0.01;71.43
71128;SHT30;59249;59.736;30.568;2023-03-01T16:03:03;-0.14;70.97
71128;SHT30;59249;59.736;30.568;2023-03-01T16:05:35;-0.15;71.21
71128;SHT30;59249;59.736;30.568;2023-03-01T16:08:15;-0.07;71.16
71128;SHT30;59249;59.736;30.568;2023-03-01T16:10:44;-0.21;71.18
71128;SHT30;59249;59.736;30.568;2023-03-01T16:13:19;-0.06;71.40